sensor_id;sensor_type;location;lat;lon;timestamp;P1;durP1;ratioP1;P2;durP2;ratioP2
27778;SDS011;30234;48.090;11.464;2022-11-15T00:02:57;1.58;;;1.48;;
27778;SDS011;30234;48.090;11.464;2022-11-15T00:06:58;1.90;;;1.50;;
27778;SDS011;30234;48.090;11.464;2022-11-15T00:11:00;1.52;;;1.40;;
27778;SDS011;30234;48.090;11.464;2022-11-15T00:15:02;2.15;;;1.75;;
27778;SDS011;30234;48.090;11.464;2022-11-15T00:19:04;1.50;;;1.27;;
27778;SDS011;30234;48.090;11.464;2022-11-15T00:23:06;1.73;;;1.40;;
27778;SDS011;30234;48.090;11.464;2022-11-15T00:27:06;3.13;;;1.35;;
27778;SDS011;30234;48.090;11.464;2022-11-15T00:31:09;1.48;;;1.35;;
27778;SDS011;30234;48.090;11.464;2022-11-15T00:35:12;1.80;;;1.42;;
27778;SDS011;30234;48.090;11.464;2022-11-15T00:39:13;2.33;;;1.50;;
27778;SDS011;30234;48.090;11.464;2022-11-15T00:43:14;1.40;;;1.10;;
27778;SDS011;30234;48.090;11.464;2022-11-15T00:47:15;1.83;;;1.17;;
27778;SDS011;30234;48.090;11.464;2022-11-15T00:51:15;1.35;;;1.10;;
27778;SDS011;30234;48.090;11.464;2022-11-15T00:55:16;1.45;;;1.20;;
27778;SDS011;30234;48.090;11.464;2022-11-15T00:59:18;1.55;;;1.45;;
27778;SDS011;30234;48.090;11.464;2022-11-15T01:03:19;3.45;;;1.40;;
27778;SDS011;30234;48.090;11.464;2022-11-15T01:07:20;1.30;;;1.20;;
27778;SDS011;30234;48.090;11.464;2022-11-15T01:11:21;1.75;;;1.20;;
27778;SDS011;30234;48.090;11.464;2022-11-15T01:15:22;1.65;;;1.40;;
27778;SDS011;30234;48.090;11.464;2022-11-15T01:19:22;1.45;;;1.33;;
27778;SDS011;30234;48.090;11.464;2022-11-15T01:23:23;2.33;;;1.63;;
27778;SDS011;30234;48.090;11.464;2022-11-15T01:27:24;2.65;;;1.52;;
27778;SDS011;30234;48.090;11.464;2022-11-15T01:31:25;1.90;;;1.10;;
27778;SDS011;30234;48.090;11.464;2022-11-15T01:35:25;2.17;;;1.42;;
27778;SDS011;30234;48.090;11.464;2022-11-15T01:39:26;1.75;;;1.63;;
27778;SDS011;30234;48.090;11.464;2022-11-15T01:47:33;1.40;;;1.20;;
27778;SDS011;30234;48.090;11.464;2022-11-15T01:51:38;1.45;;;1.20;;
27778;SDS011;30234;48.090;11.464;2022-11-15T01:55:39;1.17;;;1.05;;
27778;SDS011;30234;48.090;11.464;2022-11-15T01:59:42;2.20;;;1.15;;
27778;SDS011;30234;48.090;11.464;2022-11-15T02:07:52;3.78;;;1.20;;
27778;SDS011;30234;48.090;11.464;2022-11-15T02:11:53;1.15;;;1.05;;
27778;SDS011;30234;48.090;11.464;2022-11-15T02:20:46;2.00;;;1.30;;
27778;SDS011;30234;48.090;11.464;2022-11-15T02:38:59;1.20;;;1.10;;
27778;SDS011;30234;48.090;11.464;2022-11-15T02:43:27;1.88;;;1.25;;
27778;SDS011;30234;48.090;11.464;2022-11-15T02:47:57;3.55;;;1.45;;
27778;SDS011;30234;48.090;11.464;2022-11-15T02:52:01;2.03;;;1.25;;
27778;SDS011;30234;48.090;11.464;2022-11-15T02:56:02;1.58;;;1.23;;
27778;SDS011;30234;48.090;11.464;2022-11-15T03:12:54;2.22;;;1.63;;
27778;SDS011;30234;48.090;11.464;2022-11-15T03:17:16;2.85;;;1.80;;
27778;SDS011;30234;48.090;11.464;2022-11-15T03:21:26;1.98;;;1.52;;
27778;SDS011;30234;48.090;11.464;2022-11-15T03:25:29;2.30;;;2.00;;
27778;SDS011;30234;48.090;11.464;2022-11-15T03:29:35;2.90;;;1.60;;
27778;SDS011;30234;48.090;11.464;2022-11-15T03:33:42;2.50;;;1.63;;
27778;SDS011;30234;48.090;11.464;2022-11-15T03:37:45;1.98;;;1.10;;
27778;SDS011;30234;48.090;11.464;2022-11-15T03:46:38;2.17;;;1.45;;
27778;SDS011;30234;48.090;11.464;2022-11-15T03:50:48;1.30;;;1.17;;
27778;SDS011;30234;48.090;11.464;2022-11-15T03:54:50;0.90;;;0.90;;
27778;SDS011;30234;48.090;11.464;2022-11-15T03:58:54;1.38;;;1.00;;
27778;SDS011;30234;48.090;11.464;2022-11-15T04:02:55;1.40;;;1.20;;
27778;SDS011;30234;48.090;11.464;2022-11-15T04:06:56;1.95;;;1.33;;
27778;SDS011;30234;48.090;11.464;2022-11-15T04:10:56;1.40;;;1.30;;
27778;SDS011;30234;48.090;11.464;2022-11-15T04:14:58;2.45;;;1.30;;
27778;SDS011;30234;48.090;11.464;2022-11-15T04:19:09;1.30;;;1.20;;
27778;SDS011;30234;48.090;11.464;2022-11-15T04:23:28;1.40;;;1.20;;
27778;SDS011;30234;48.090;11.464;2022-11-15T04:27:47;1.55;;;1.33;;
27778;SDS011;30234;48.090;11.464;2022-11-15T04:31:48;1.10;;;1.00;;
27778;SDS011;30234;48.090;11.464;2022-11-15T04:35:49;2.35;;;1.20;;
27778;SDS011;30234;48.090;11.464;2022-11-15T04:40:08;2.33;;;1.60;;
27778;SDS011;30234;48.090;11.464;2022-11-15T04:44:09;3.33;;;1.98;;
27778;SDS011;30234;48.090;11.464;2022-11-15T04:48:10;4.57;;;2.60;;
27778;SDS011;30234;48.090;11.464;2022-11-15T04:52:11;2.42;;;1.65;;
27778;SDS011;30234;48.090;11.464;2022-11-15T04:56:12;2.80;;;1.88;;
27778;SDS011;30234;48.090;11.464;2022-11-15T05:00:13;2.40;;;1.60;;
27778;SDS011;30234;48.090;11.464;2022-11-15T05:04:16;1.75;;;1.10;;
27778;SDS011;30234;48.090;11.464;2022-11-15T05:08:19;3.40;;;1.30;;
27778;SDS011;30234;48.090;11.464;2022-11-15T05:12:20;1.92;;;1.10;;
27778;SDS011;30234;48.090;11.464;2022-11-15T05:16:21;1.20;;;1.08;;
27778;SDS011;30234;48.090;11.464;2022-11-15T05:20:22;3.45;;;1.35;;
27778;SDS011;30234;48.090;11.464;2022-11-15T05:24:22;3.70;;;1.55;;
27778;SDS011;30234;48.090;11.464;2022-11-15T05:28:23;2.40;;;1.15;;
27778;SDS011;30234;48.090;11.464;2022-11-15T05:32:24;2.60;;;1.52;;
27778;SDS011;30234;48.090;11.464;2022-11-15T05:40:37;3.10;;;2.20;;
27778;SDS011;30234;48.090;11.464;2022-11-15T05:44:38;2.95;;;2.20;;
27778;SDS011;30234;48.090;11.464;2022-11-15T05:48:44;14.02;;;7.38;;
27778;SDS011;30234;48.090;11.464;2022-11-15T05:52:49;4.28;;;1.63;;
27778;SDS011;30234;48.090;11.464;2022-11-15T05:56:50;3.00;;;1.60;;
27778;SDS011;30234;48.090;11.464;2022-11-15T06:00:52;2.55;;;1.30;;
27778;SDS011;30234;48.090;11.464;2022-11-15T06:04:54;4.22;;;1.67;;
27778;SDS011;30234;48.090;11.464;2022-11-15T06:08:55;1.15;;;1.02;;
27778;SDS011;30234;48.090;11.464;2022-11-15T06:13:05;1.52;;;1.17;;
27778;SDS011;30234;48.090;11.464;2022-11-15T06:17:06;2.15;;;1.35;;
27778;SDS011;30234;48.090;11.464;2022-11-15T06:21:07;1.42;;;1.25;;
27778;SDS011;30234;48.090;11.464;2022-11-15T06:25:07;3.10;;;1.27;;
27778;SDS011;30234;48.090;11.464;2022-11-15T06:29:08;1.02;;;0.93;;
27778;SDS011;30234;48.090;11.464;2022-11-15T06:33:09;1.95;;;1.20;;
27778;SDS011;30234;48.090;11.464;2022-11-15T06:37:09;3.80;;;1.67;;
27778;SDS011;30234;48.090;11.464;2022-11-15T06:41:11;2.17;;;1.50;;
27778;SDS011;30234;48.090;11.464;2022-11-15T06:45:13;2.60;;;1.98;;
27778;SDS011;30234;48.090;11.464;2022-11-15T06:49:13;3.28;;;2.22;;
27778;SDS011;30234;48.090;11.464;2022-11-15T06:53:14;1.65;;;1.23;;
27778;SDS011;30234;48.090;11.464;2022-11-15T06:57:15;2.13;;;1.20;;
27778;SDS011;30234;48.090;11.464;2022-11-15T07:01:16;3.30;;;2.20;;
27778;SDS011;30234;48.090;11.464;2022-11-15T07:05:16;6.07;;;2.20;;
27778;SDS011;30234;48.090;11.464;2022-11-15T07:09:17;3.15;;;1.23;;
27778;SDS011;30234;48.090;11.464;2022-11-15T07:13:18;1.42;;;1.02;;
27778;SDS011;30234;48.090;11.464;2022-11-15T07:17:18;1.10;;;1.00;;
27778;SDS011;30234;48.090;11.464;2022-11-15T07:21:19;1.85;;;1.02;;
27778;SDS011;30234;48.090;11.464;2022-11-15T07:25:20;2.05;;;0.85;;
27778;SDS011;30234;48.090;11.464;2022-11-15T07:29:21;3.65;;;1.45;;
27778;SDS011;30234;48.090;11.464;2022-11-15T07:33:21;3.47;;;1.92;;
27778;SDS011;30234;48.090;11.464;2022-11-15T07:37:22;2.92;;;1.30;;
27778;SDS011;30234;48.090;11.464;2022-11-15T07:41:23;2.35;;;1.55;;
27778;SDS011;30234;48.090;11.464;2022-11-15T07:45:24;1.40;;;1.30;;
27778;SDS011;30234;48.090;11.464;2022-11-15T07:49:27;3.55;;;1.40;;
27778;SDS011;30234;48.090;11.464;2022-11-15T07:53:28;6.47;;;1.63;;
27778;SDS011;30234;48.090;11.464;2022-11-15T07:57:29;5.07;;;1.98;;
27778;SDS011;30234;48.090;11.464;2022-11-15T08:01:30;3.20;;;1.80;;
27778;SDS011;30234;48.090;11.464;2022-11-15T08:05:31;2.75;;;1.52;;
27778;SDS011;30234;48.090;11.464;2022-11-15T08:09:32;6.13;;;2.28;;
27778;SDS011;30234;48.090;11.464;2022-11-15T08:13:33;3.53;;;2.20;;
27778;SDS011;30234;48.090;11.464;2022-11-15T08:17:33;3.13;;;1.40;;
27778;SDS011;30234;48.090;11.464;2022-11-15T08:21:34;4.55;;;2.13;;
27778;SDS011;30234;48.090;11.464;2022-11-15T08:25:35;8.48;;;2.05;;
27778;SDS011;30234;48.090;11.464;2022-11-15T08:29:36;4.53;;;2.45;;
27778;SDS011;30234;48.090;11.464;2022-11-15T08:33:37;1.98;;;1.88;;
27778;SDS011;30234;48.090;11.464;2022-11-15T08:37:38;6.28;;;2.10;;
27778;SDS011;30234;48.090;11.464;2022-11-15T08:41:39;4.88;;;3.05;;
27778;SDS011;30234;48.090;11.464;2022-11-15T08:45:39;5.07;;;3.15;;
27778;SDS011;30234;48.090;11.464;2022-11-15T08:49:40;4.28;;;2.72;;
27778;SDS011;30234;48.090;11.464;2022-11-15T08:53:41;5.45;;;2.40;;
27778;SDS011;30234;48.090;11.464;2022-11-15T08:57:42;4.05;;;2.10;;
27778;SDS011;30234;48.090;11.464;2022-11-15T09:01:43;4.20;;;2.53;;
27778;SDS011;30234;48.090;11.464;2022-11-15T09:05:43;4.05;;;2.58;;
27778;SDS011;30234;48.090;11.464;2022-11-15T09:09:44;1.92;;;1.70;;
27778;SDS011;30234;48.090;11.464;2022-11-15T09:13:45;1.58;;;1.48;;
27778;SDS011;30234;48.090;11.464;2022-11-15T09:17:46;1.38;;;1.17;;
27778;SDS011;30234;48.090;11.464;2022-11-15T09:21:46;3.15;;;1.35;;
27778;SDS011;30234;48.090;11.464;2022-11-15T09:25:47;2.58;;;1.13;;
27778;SDS011;30234;48.090;11.464;2022-11-15T09:29:48;1.38;;;1.05;;
27778;SDS011;30234;48.090;11.464;2022-11-15T09:33:49;3.15;;;1.23;;
27778;SDS011;30234;48.090;11.464;2022-11-15T09:37:49;3.08;;;1.33;;
27778;SDS011;30234;48.090;11.464;2022-11-15T09:50:48;1.85;;;1.00;;
27778;SDS011;30234;48.090;11.464;2022-11-15T09:54:51;1.33;;;1.10;;
27778;SDS011;30234;48.090;11.464;2022-11-15T10:03:34;2.60;;;1.63;;
27778;SDS011;30234;48.090;11.464;2022-11-15T10:12:19;2.50;;;1.42;;
27778;SDS011;30234;48.090;11.464;2022-11-15T10:21:01;1.65;;;1.30;;
27778;SDS011;30234;48.090;11.464;2022-11-15T10:25:50;2.45;;;1.00;;
27778;SDS011;30234;48.090;11.464;2022-11-15T10:29:45;1.30;;;1.20;;
27778;SDS011;30234;48.090;11.464;2022-11-15T10:33:48;6.18;;;1.25;;
27778;SDS011;30234;48.090;11.464;2022-11-15T10:37:50;7.07;;;1.40;;
27778;SDS011;30234;48.090;11.464;2022-11-15T10:41:50;2.35;;;1.20;;
27778;SDS011;30234;48.090;11.464;2022-11-15T10:45:51;2.95;;;1.00;;
27778;SDS011;30234;48.090;11.464;2022-11-15T10:49:57;2.75;;;0.85;;
27778;SDS011;30234;48.090;11.464;2022-11-15T10:58:56;1.35;;;1.25;;
27778;SDS011;30234;48.090;11.464;2022-11-15T11:02:59;1.63;;;1.30;;
27778;SDS011;30234;48.090;11.464;2022-11-15T11:07:08;1.13;;;1.02;;
27778;SDS011;30234;48.090;11.464;2022-11-15T11:11:22;1.48;;;1.10;;
27778;SDS011;30234;48.090;11.464;2022-11-15T11:15:24;2.55;;;1.02;;
27778;SDS011;30234;48.090;11.464;2022-11-15T11:19:37;3.58;;;1.27;;
27778;SDS011;30234;48.090;11.464;2022-11-15T11:24:34;3.17;;;1.08;;
27778;SDS011;30234;48.090;11.464;2022-11-15T11:29:25;4.35;;;1.50;;
27778;SDS011;30234;48.090;11.464;2022-11-15T11:33:21;4.13;;;1.23;;
27778;SDS011;30234;48.090;11.464;2022-11-15T11:42:03;3.00;;;1.08;;
27778;SDS011;30234;48.090;11.464;2022-11-15T11:46:40;2.72;;;1.02;;
27778;SDS011;30234;48.090;11.464;2022-11-15T11:50:57;1.25;;;0.90;;
27778;SDS011;30234;48.090;11.464;2022-11-15T12:04:01;2.22;;;1.13;;
27778;SDS011;30234;48.090;11.464;2022-11-15T12:08:29;2.05;;;1.38;;
27778;SDS011;30234;48.090;11.464;2022-11-15T12:17:03;1.83;;;1.13;;
27778;SDS011;30234;48.090;11.464;2022-11-15T12:21:07;1.63;;;1.00;;
27778;SDS011;30234;48.090;11.464;2022-11-15T12:25:45;1.42;;;1.15;;
27778;SDS011;30234;48.090;11.464;2022-11-15T12:29:57;1.42;;;1.02;;
27778;SDS011;30234;48.090;11.464;2022-11-15T12:34:15;1.15;;;0.80;;
27778;SDS011;30234;48.090;11.464;2022-11-15T12:47:32;2.80;;;1.00;;
27778;SDS011;30234;48.090;11.464;2022-11-15T12:55:43;6.47;;;0.90;;
27778;SDS011;30234;48.090;11.464;2022-11-15T13:04:14;1.35;;;1.00;;
27778;SDS011;30234;48.090;11.464;2022-11-15T13:08:59;2.60;;;1.13;;
27778;SDS011;30234;48.090;11.464;2022-11-15T13:12:54;1.63;;;0.88;;
27778;SDS011;30234;48.090;11.464;2022-11-15T13:17:10;1.45;;;1.20;;
27778;SDS011;30234;48.090;11.464;2022-11-15T13:21:23;1.75;;;1.20;;
27778;SDS011;30234;48.090;11.464;2022-11-15T13:26:13;3.35;;;1.20;;
27778;SDS011;30234;48.090;11.464;2022-11-15T13:30:23;2.55;;;1.35;;
27778;SDS011;30234;48.090;11.464;2022-11-15T13:34:30;1.27;;;1.10;;
27778;SDS011;30234;48.090;11.464;2022-11-15T13:38:34;2.17;;;1.65;;
27778;SDS011;30234;48.090;11.464;2022-11-15T13:42:38;1.67;;;1.50;;
27778;SDS011;30234;48.090;11.464;2022-11-15T13:46:38;4.55;;;1.73;;
27778;SDS011;30234;48.090;11.464;2022-11-15T13:50:39;2.67;;;1.45;;
27778;SDS011;30234;48.090;11.464;2022-11-15T13:54:42;4.22;;;1.35;;
27778;SDS011;30234;48.090;11.464;2022-11-15T13:58:46;2.58;;;1.38;;
27778;SDS011;30234;48.090;11.464;2022-11-15T14:02:48;2.88;;;2.00;;
27778;SDS011;30234;48.090;11.464;2022-11-15T14:06:49;5.55;;;3.40;;
27778;SDS011;30234;48.090;11.464;2022-11-15T14:11:06;7.60;;;4.80;;
27778;SDS011;30234;48.090;11.464;2022-11-15T14:15:27;3.60;;;1.50;;
27778;SDS011;30234;48.090;11.464;2022-11-15T14:19:35;4.50;;;1.55;;
27778;SDS011;30234;48.090;11.464;2022-11-15T14:23:38;1.45;;;1.25;;
27778;SDS011;30234;48.090;11.464;2022-11-15T14:27:40;1.08;;;0.98;;
27778;SDS011;30234;48.090;11.464;2022-11-15T14:31:43;1.25;;;1.15;;
27778;SDS011;30234;48.090;11.464;2022-11-15T14:35:46;3.13;;;1.38;;
27778;SDS011;30234;48.090;11.464;2022-11-15T14:39:47;2.03;;;1.25;;
27778;SDS011;30234;48.090;11.464;2022-11-15T14:43:49;1.85;;;1.40;;
27778;SDS011;30234;48.090;11.464;2022-11-15T14:47:50;3.97;;;1.25;;
27778;SDS011;30234;48.090;11.464;2022-11-15T14:51:51;2.17;;;1.08;;
27778;SDS011;30234;48.090;11.464;2022-11-15T14:55:52;2.00;;;1.50;;
27778;SDS011;30234;48.090;11.464;2022-11-15T14:59:53;3.10;;;1.58;;
27778;SDS011;30234;48.090;11.464;2022-11-15T15:03:53;1.33;;;1.20;;
27778;SDS011;30234;48.090;11.464;2022-11-15T15:07:58;4.38;;;2.17;;
27778;SDS011;30234;48.090;11.464;2022-11-15T15:11:58;7.75;;;3.83;;
27778;SDS011;30234;48.090;11.464;2022-11-15T15:15:59;3.63;;;3.00;;
27778;SDS011;30234;48.090;11.464;2022-11-15T15:20:00;4.07;;;2.53;;
27778;SDS011;30234;48.090;11.464;2022-11-15T15:24:01;9.23;;;5.13;;
27778;SDS011;30234;48.090;11.464;2022-11-15T15:28:02;8.93;;;4.72;;
27778;SDS011;30234;48.090;11.464;2022-11-15T15:32:03;8.25;;;2.95;;
27778;SDS011;30234;48.090;11.464;2022-11-15T15:36:04;10.70;;;5.47;;
27778;SDS011;30234;48.090;11.464;2022-11-15T15:40:10;6.45;;;3.42;;
27778;SDS011;30234;48.090;11.464;2022-11-15T15:44:17;9.38;;;5.10;;
27778;SDS011;30234;48.090;11.464;2022-11-15T15:48:18;8.52;;;3.65;;
27778;SDS011;30234;48.090;11.464;2022-11-15T15:52:18;8.27;;;4.40;;
27778;SDS011;30234;48.090;11.464;2022-11-15T15:56:19;7.75;;;3.92;;
27778;SDS011;30234;48.090;11.464;2022-11-15T16:00:20;6.32;;;3.45;;
27778;SDS011;30234;48.090;11.464;2022-11-15T16:04:23;4.45;;;3.13;;
27778;SDS011;30234;48.090;11.464;2022-11-15T16:08:25;4.18;;;2.65;;
27778;SDS011;30234;48.090;11.464;2022-11-15T16:12:27;8.02;;;2.67;;
27778;SDS011;30234;48.090;11.464;2022-11-15T16:16:34;7.00;;;2.28;;
27778;SDS011;30234;48.090;11.464;2022-11-15T16:20:43;4.82;;;2.08;;
27778;SDS011;30234;48.090;11.464;2022-11-15T16:24:47;2.17;;;1.83;;
27778;SDS011;30234;48.090;11.464;2022-11-15T16:28:48;3.58;;;2.28;;
27778;SDS011;30234;48.090;11.464;2022-11-15T16:32:49;4.25;;;2.30;;
27778;SDS011;30234;48.090;11.464;2022-11-15T16:36:49;9.07;;;2.70;;
27778;SDS011;30234;48.090;11.464;2022-11-15T16:40:51;2.85;;;1.80;;
27778;SDS011;30234;48.090;11.464;2022-11-15T16:44:52;2.13;;;1.45;;
27778;SDS011;30234;48.090;11.464;2022-11-15T16:48:52;7.07;;;1.70;;
27778;SDS011;30234;48.090;11.464;2022-11-15T16:52:55;4.07;;;2.20;;
27778;SDS011;30234;48.090;11.464;2022-11-15T16:56:58;8.40;;;2.20;;
27778;SDS011;30234;48.090;11.464;2022-11-15T17:00:58;4.22;;;1.80;;
27778;SDS011;30234;48.090;11.464;2022-11-15T17:04:59;4.15;;;1.95;;
27778;SDS011;30234;48.090;11.464;2022-11-15T17:09:00;3.92;;;1.95;;
27778;SDS011;30234;48.090;11.464;2022-11-15T17:13:00;4.47;;;3.28;;
27778;SDS011;30234;48.090;11.464;2022-11-15T17:17:01;8.63;;;4.43;;
27778;SDS011;30234;48.090;11.464;2022-11-15T17:21:12;4.88;;;2.65;;
27778;SDS011;30234;48.090;11.464;2022-11-15T17:25:18;6.13;;;2.05;;
27778;SDS011;30234;48.090;11.464;2022-11-15T17:29:19;7.70;;;2.03;;
27778;SDS011;30234;48.090;11.464;2022-11-15T17:33:20;3.28;;;1.70;;
27778;SDS011;30234;48.090;11.464;2022-11-15T17:37:20;2.97;;;1.50;;
27778;SDS011;30234;48.090;11.464;2022-11-15T17:41:21;2.38;;;1.50;;
27778;SDS011;30234;48.090;11.464;2022-11-15T17:45:22;3.20;;;2.08;;
27778;SDS011;30234;48.090;11.464;2022-11-15T17:49:23;6.95;;;3.05;;
27778;SDS011;30234;48.090;11.464;2022-11-15T17:53:24;4.43;;;2.70;;
27778;SDS011;30234;48.090;11.464;2022-11-15T17:57:26;4.03;;;2.45;;
27778;SDS011;30234;48.090;11.464;2022-11-15T18:01:30;4.60;;;2.65;;
27778;SDS011;30234;48.090;11.464;2022-11-15T18:05:33;1.98;;;1.63;;
27778;SDS011;30234;48.090;11.464;2022-11-15T18:09:34;3.22;;;1.95;;
27778;SDS011;30234;48.090;11.464;2022-11-15T18:13:35;2.25;;;1.70;;
27778;SDS011;30234;48.090;11.464;2022-11-15T18:17:37;1.77;;;1.45;;
27778;SDS011;30234;48.090;11.464;2022-11-15T18:21:39;2.58;;;1.48;;
27778;SDS011;30234;48.090;11.464;2022-11-15T18:25:56;2.47;;;1.88;;
27778;SDS011;30234;48.090;11.464;2022-11-15T18:29:58;1.80;;;1.45;;
27778;SDS011;30234;48.090;11.464;2022-11-15T18:33:59;4.22;;;2.45;;
27778;SDS011;30234;48.090;11.464;2022-11-15T18:38:00;2.53;;;1.80;;
27778;SDS011;30234;48.090;11.464;2022-11-15T18:42:01;4.68;;;2.80;;
27778;SDS011;30234;48.090;11.464;2022-11-15T18:46:03;3.22;;;2.17;;
27778;SDS011;30234;48.090;11.464;2022-11-15T18:50:11;4.30;;;2.45;;
27778;SDS011;30234;48.090;11.464;2022-11-15T18:54:14;5.07;;;2.80;;
27778;SDS011;30234;48.090;11.464;2022-11-15T18:58:16;4.03;;;2.30;;
27778;SDS011;30234;48.090;11.464;2022-11-15T19:02:16;3.22;;;2.20;;
27778;SDS011;30234;48.090;11.464;2022-11-15T19:06:21;3.72;;;2.00;;
27778;SDS011;30234;48.090;11.464;2022-11-15T19:14:28;5.00;;;2.35;;
27778;SDS011;30234;48.090;11.464;2022-11-15T19:18:29;21.58;;;9.73;;
27778;SDS011;30234;48.090;11.464;2022-11-15T19:22:31;5.43;;;3.35;;
27778;SDS011;30234;48.090;11.464;2022-11-15T19:26:32;4.63;;;2.55;;
27778;SDS011;30234;48.090;11.464;2022-11-15T19:30:36;4.00;;;2.58;;
27778;SDS011;30234;48.090;11.464;2022-11-15T19:34:37;5.32;;;2.10;;
27778;SDS011;30234;48.090;11.464;2022-11-15T19:38:40;3.30;;;2.50;;
27778;SDS011;30234;48.090;11.464;2022-11-15T19:42:41;5.85;;;2.50;;
27778;SDS011;30234;48.090;11.464;2022-11-15T19:46:42;5.18;;;2.95;;
27778;SDS011;30234;48.090;11.464;2022-11-15T19:50:43;5.97;;;4.13;;
27778;SDS011;30234;48.090;11.464;2022-11-15T19:54:43;8.77;;;5.22;;
27778;SDS011;30234;48.090;11.464;2022-11-15T19:58:44;7.15;;;3.88;;
27778;SDS011;30234;48.090;11.464;2022-11-15T20:02:48;6.07;;;3.58;;
27778;SDS011;30234;48.090;11.464;2022-11-15T20:06:49;8.07;;;2.60;;
27778;SDS011;30234;48.090;11.464;2022-11-15T20:10:50;2.63;;;1.88;;
27778;SDS011;30234;48.090;11.464;2022-11-15T20:14:50;3.00;;;1.80;;
27778;SDS011;30234;48.090;11.464;2022-11-15T20:18:51;9.38;;;4.10;;
27778;SDS011;30234;48.090;11.464;2022-11-15T20:22:52;8.00;;;4.47;;
27778;SDS011;30234;48.090;11.464;2022-11-15T20:26:53;6.82;;;4.30;;
27778;SDS011;30234;48.090;11.464;2022-11-15T20:30:55;6.30;;;4.20;;
27778;SDS011;30234;48.090;11.464;2022-11-15T20:34:58;6.07;;;3.60;;
27778;SDS011;30234;48.090;11.464;2022-11-15T20:38:59;6.90;;;3.38;;
27778;SDS011;30234;48.090;11.464;2022-11-15T20:42:59;7.90;;;3.97;;
27778;SDS011;30234;48.090;11.464;2022-11-15T20:47:01;7.15;;;2.83;;
27778;SDS011;30234;48.090;11.464;2022-11-15T20:51:06;4.32;;;2.42;;
27778;SDS011;30234;48.090;11.464;2022-11-15T20:55:11;3.85;;;2.72;;
27778;SDS011;30234;48.090;11.464;2022-11-15T20:59:11;3.50;;;2.60;;
27778;SDS011;30234;48.090;11.464;2022-11-15T21:03:12;4.78;;;2.50;;
27778;SDS011;30234;48.090;11.464;2022-11-15T21:07:13;3.85;;;2.40;;
27778;SDS011;30234;48.090;11.464;2022-11-15T21:11:14;3.35;;;1.77;;
27778;SDS011;30234;48.090;11.464;2022-11-15T21:15:33;5.07;;;2.63;;
27778;SDS011;30234;48.090;11.464;2022-11-15T21:19:34;4.35;;;2.38;;
27778;SDS011;30234;48.090;11.464;2022-11-15T21:23:35;5.47;;;2.40;;
27778;SDS011;30234;48.090;11.464;2022-11-15T21:27:36;5.78;;;2.50;;
27778;SDS011;30234;48.090;11.464;2022-11-15T21:31:36;8.00;;;3.55;;
27778;SDS011;30234;48.090;11.464;2022-11-15T21:35:37;6.82;;;3.45;;
27778;SDS011;30234;48.090;11.464;2022-11-15T21:39:38;5.55;;;2.83;;
27778;SDS011;30234;48.090;11.464;2022-11-15T21:43:39;4.75;;;2.92;;
27778;SDS011;30234;48.090;11.464;2022-11-15T21:47:40;4.82;;;2.95;;
27778;SDS011;30234;48.090;11.464;2022-11-15T21:51:40;4.47;;;3.30;;
27778;SDS011;30234;48.090;11.464;2022-11-15T21:55:41;5.55;;;2.80;;
27778;SDS011;30234;48.090;11.464;2022-11-15T21:59:42;9.00;;;3.28;;
27778;SDS011;30234;48.090;11.464;2022-11-15T22:04:01;3.58;;;2.80;;
27778;SDS011;30234;48.090;11.464;2022-11-15T22:08:02;3.22;;;2.50;;
27778;SDS011;30234;48.090;11.464;2022-11-15T22:12:03;5.60;;;2.08;;
27778;SDS011;30234;48.090;11.464;2022-11-15T22:16:04;4.18;;;2.50;;
27778;SDS011;30234;48.090;11.464;2022-11-15T22:20:07;6.85;;;2.47;;
27778;SDS011;30234;48.090;11.464;2022-11-15T22:24:07;3.17;;;2.30;;
27778;SDS011;30234;48.090;11.464;2022-11-15T22:28:08;3.58;;;2.55;;
27778;SDS011;30234;48.090;11.464;2022-11-15T22:32:09;6.35;;;3.33;;
27778;SDS011;30234;48.090;11.464;2022-11-15T22:36:10;5.20;;;2.42;;
27778;SDS011;30234;48.090;11.464;2022-11-15T22:40:11;4.55;;;3.00;;
27778;SDS011;30234;48.090;11.464;2022-11-15T22:44:12;6.05;;;2.53;;
27778;SDS011;30234;48.090;11.464;2022-11-15T22:48:13;4.05;;;2.10;;
27778;SDS011;30234;48.090;11.464;2022-11-15T22:52:14;4.10;;;2.90;;
27778;SDS011;30234;48.090;11.464;2022-11-15T22:56:15;3.17;;;2.38;;
27778;SDS011;30234;48.090;11.464;2022-11-15T23:00:16;2.17;;;1.85;;
27778;SDS011;30234;48.090;11.464;2022-11-15T23:04:17;3.22;;;2.50;;
27778;SDS011;30234;48.090;11.464;2022-11-15T23:08:18;3.13;;;2.10;;
27778;SDS011;30234;48.090;11.464;2022-11-15T23:12:20;2.47;;;1.85;;
27778;SDS011;30234;48.090;11.464;2022-11-15T23:16:39;3.58;;;2.20;;
27778;SDS011;30234;48.090;11.464;2022-11-15T23:20:40;3.10;;;2.20;;
27778;SDS011;30234;48.090;11.464;2022-11-15T23:24:41;3.10;;;2.33;;
27778;SDS011;30234;48.090;11.464;2022-11-15T23:28:41;4.30;;;2.42;;
27778;SDS011;30234;48.090;11.464;2022-11-15T23:32:42;3.25;;;2.65;;
27778;SDS011;30234;48.090;11.464;2022-11-15T23:37:01;4.80;;;2.78;;
27778;SDS011;30234;48.090;11.464;2022-11-15T23:41:03;4.70;;;3.30;;
27778;SDS011;30234;48.090;11.464;2022-11-15T23:45:05;4.78;;;3.28;;
27778;SDS011;30234;48.090;11.464;2022-11-15T23:49:06;5.47;;;3.60;;
27778;SDS011;30234;48.090;11.464;2022-11-15T23:53:07;4.72;;;3.13;;
27778;SDS011;30234;48.090;11.464;2022-11-15T23:57:08;7.40;;;3.67;;
